Airfield :
LOGIN :

Register | Disclaimer

   EN    FR    IT 

 










Legend :    VFR   Marginal VFR   IFR   Intensive IFR   Very Intensive IFR
Visi :
Ceiling :
>= 8 km
>= 3000ft
5 to 8 km
1000 to 3000 ft
1500m to 5 km
500 to 1000 ft
800 to 1500m
200 to 500 ft
< 800m
< 200 ft
Symbols :   Thunderstorms  Fog  Heavy snow  Heavy precipitations  Wind > 20 kt
SIGMETs :     Misc.  Thunderstorms  Icing  Turbulence  Mountain Waves  Volcanic Ashes






- Airport Elevation : 7 ft
- IATA code : POW


LJPZ - Portoroz

CURRENT METAR :
  • 192100Z AUTO VRB02KT 9999 NSC 25/23 Q1012

EXPIRED METARs :
  • 192030Z AUTO 13005KT 100V180 9999 -RA FEW060/// SCT075/// BKN110/// 25/23 Q1012
  • 192000Z AUTO 01009KT 330V040 9999 FEW070/// SCT120/// BKN160/// 27/22 Q1012
  • 191930Z AUTO 11004KT 070V140 9999 BKN070/// BKN110/// 28/19 Q1012
  • 191900Z AUTO 12003KT 9999 NSC 29/19 Q1011
  • 191830Z AUTO VRB02KT 9999 NSC 30/19 Q1011
  • 191800Z 11003KT 9999 FEW050TCU 32/18 Q1011
  • 191730Z VRB01KT CAVOK 33/18 Q1011
  • 191700Z 13006KT 100V160 9999 FEW050CB FEW070 SCT130 32/18 Q1011
  • 191630Z 31005KT 280V350 9999 FEW050CB FEW070 33/22 Q1011

TAF TAF LJPZ
Valid from the 19 at 21:00 until the 20 at 06:00 UTC


192000Z 1921/2006 03010KT 9999 BKN080
PROB40
TEMPO 1921/2003 32015G25KT 5000 TSRA BKN050CB



MET'MAP, your aeronautical weather chart ! - Copyright ORBIFLY December 2007 - Disclaimer

ORBIFLY MET'MAP TEAM :

Programming & Development : Alexandra Zaïnal
Original concept : Baudouin d'Aumeries
Technical & hardware support : Manuel Goepfert
Assistance : Marc-Olivier Méhu




SOURCES & CREDITS :

   NOAA